Time;durP1;ratioP1;P1;durP2;ratioP2;P2;SDS_P1;SDS_P2;PMS_P1;PMS_P2;Temp;Humidity;BMP_temperature;BMP_pressure;BME280_temperature;BME280_humidity;BME280_pressure;Samples;Min_cycle;Max_cycle;Signal;HPM_P1;HPM_P2
2022/05/26 00:01:21;;;;;;;7.88;3.10;;;;;;;19.89;51.88;100738.25;5063195;28;20036;-56
2022/05/26 00:03:48;;;;;;;7.05;3.20;;;;;;;19.70;51.77;100746.91;5073291;28;20473;-56
2022/05/26 00:06:19;;;;;;;8.60;4.00;;;;;;;19.53;52.70;100738.97;5069582;28;20054;-56
2022/05/26 00:08:47;;;;;;;5.10;3.53;;;;;;;19.39;53.45;100745.19;5063990;28;20049;-55
2022/05/26 00:11:21;;;;;;;10.10;3.88;;;;;;;19.23;53.60;100731.56;5061313;28;20029;-56
2022/05/26 00:13:47;;;;;;;8.80;3.33;;;;;;;19.20;53.96;100737.50;5069595;28;20263;-58
2022/05/26 00:16:14;;;;;;;6.47;3.15;;;;;;;18.70;55.71;100738.88;5072548;28;20033;-58
2022/05/26 00:18:42;;;;;;;7.35;3.33;;;;;;;18.63;55.37;100737.47;5068523;22;20053;-58
2022/05/26 00:21:08;;;;;;;4.22;3.13;;;;;;;18.64;55.42;100739.09;5061317;28;20029;-58
2022/05/26 00:23:35;;;;;;;5.15;2.80;;;;;;;18.84;55.04;100750.09;5064387;28;20028;-58
2022/05/26 00:26:01;;;;;;;7.43;2.47;;;;;;;18.81;54.87;100742.47;5070861;28;20039;-56
2022/05/26 00:28:28;;;;;;;5.82;2.88;;;;;;;18.46;55.53;100752.00;5065430;28;20066;-56
2022/05/26 00:30:54;;;;;;;7.78;3.03;;;;;;;18.21;56.75;100740.97;5056354;28;20393;-55
2022/05/26 00:33:20;;;;;;;7.70;3.72;;;;;;;18.08;56.54;100741.41;5073842;28;20028;-57
2022/05/26 00:35:47;;;;;;;9.88;3.60;;;;;;;17.97;57.45;100743.19;5067198;28;20060;-58
2022/05/26 00:38:14;;;;;;;5.53;2.80;;;;;;;18.07;57.08;100745.19;5053908;28;20397;-57
2022/05/26 00:40:43;;;;;;;7.15;3.47;;;;;;;18.10;57.81;100745.50;5061533;28;20042;-57
2022/05/26 00:43:11;;;;;;;5.75;3.00;;;;;;;18.30;57.24;100746.72;5065835;28;20098;-58
2022/05/26 00:46:00;;;;;;;6.40;2.58;;;;;;;18.24;56.63;100736.94;5051623;28;20025;-58
2022/05/26 00:48:33;;;;;;;10.18;3.28;;;;;;;17.94;57.84;100744.53;5053416;28;20029;-56
2022/05/26 00:51:02;;;;;;;7.93;3.20;;;;;;;18.19;57.23;100738.50;5053068;28;20469;-56
2022/05/26 00:53:39;;;;;;;7.93;2.72;;;;;;;18.03;57.66;100734.03;5053567;28;20483;-56
2022/05/26 00:56:12;;;;;;;7.07;2.95;;;;;;;18.07;57.05;100740.59;5053214;28;20037;-55
2022/05/26 00:58:42;;;;;;;5.07;2.95;;;;;;;17.95;57.40;100737.25;5064225;28;20081;-56
2022/05/26 01:01:11;;;;;;;5.00;3.05;;;;;;;17.68;58.19;100742.63;5061712;28;20087;-55
2022/05/26 01:03:45;;;;;;;5.80;3.08;;;;;;;17.56;58.79;100737.38;5058061;28;20036;-55
2022/05/26 01:06:17;;;;;;;4.55;2.10;;;;;;;17.49;59.18;100744.03;5052763;28;20021;-55
2022/05/26 01:09:04;;;;;;;5.80;2.85;;;;;;;17.28;59.40;100737.59;5056833;28;20029;-55
2022/05/26 01:11:36;;;;;;;3.50;2.50;;;;;;;17.21;60.02;100735.06;5068264;28;20035;-55
2022/05/26 01:14:21;;;;;;;4.28;3.00;;;;;;;17.27;60.24;100735.97;5052901;28;20031;-57
2022/05/26 01:17:14;;;;;;;5.88;3.10;;;;;;;17.06;60.95;100726.78;5051377;28;20106;-59
2022/05/26 01:20:02;;;;;;;9.95;3.08;;;;;;;16.93;60.56;100737.97;5051205;28;20080;-58
2022/05/26 01:22:50;;;;;;;5.95;3.42;;;;;;;16.94;60.64;100724.22;5053022;28;20017;-58
2022/05/26 01:25:35;;;;;;;7.75;3.05;;;;;;;16.55;61.87;100729.59;5052116;28;20515;-58
2022/05/26 01:28:27;;;;;;;7.97;2.90;;;;;;;16.71;61.69;100711.75;5055424;28;20449;-58
2022/05/26 01:31:11;;;;;;;7.57;2.92;;;;;;;16.80;60.87;100721.03;5059378;28;20032;-57
2022/05/26 01:33:50;;;;;;;5.80;2.88;;;;;;;16.59;61.73;100714.50;5068453;28;20485;-57
2022/05/26 01:36:35;;;;;;;4.00;2.15;;;;;;;16.78;61.08;100722.38;5052683;28;20028;-57
2022/05/26 01:39:23;;;;;;;8.07;2.87;;;;;;;16.84;60.99;100715.97;5054796;28;20037;-57
2022/05/26 01:42:10;;;;;;;5.70;2.42;;;;;;;16.67;61.60;100715.16;5052725;28;20477;-56
2022/05/26 01:45:00;;;;;;;5.80;2.47;;;;;;;16.73;61.62;100712.31;5051284;28;20116;-56
2022/05/26 01:47:58;;;;;;;3.53;2.28;;;;;;;16.72;61.63;100707.16;5052338;28;20025;-55
2022/05/26 01:50:40;;;;;;;5.22;2.42;;;;;;;16.63;62.39;100712.13;5069067;28;20369;-57
2022/05/26 01:53:21;;;;;;;4.80;2.40;;;;;;;16.86;61.55;100714.63;5072310;28;20033;-56
2022/05/26 01:55:53;;;;;;;5.72;2.13;;;;;;;16.59;62.08;100717.19;5071978;28;20075;-56
2022/05/26 01:58:39;;;;;;;5.35;2.28;;;;;;;16.56;61.85;100717.72;5072198;28;20028;-56
2022/05/26 02:01:14;;;;;;;4.03;2.00;;;;;;;16.66;61.65;100718.91;5072237;28;20035;-57
2022/05/26 02:03:45;;;;;;;3.87;1.93;;;;;;;16.59;61.47;100719.09;5070679;28;20107;-57
2022/05/26 02:06:19;;;;;;;3.33;2.20;;;;;;;16.88;60.80;100714.41;5070742;28;20059;-57
2022/05/26 02:08:56;;;;;;;2.75;2.33;;;;;;;17.02;60.05;100726.47;5072672;28;20408;-57
2022/05/26 02:11:23;;;;;;;4.47;2.38;;;;;;;16.97;59.71;100715.59;5072026;28;20090;-56
2022/05/26 02:14:17;;;;;;;4.65;2.58;;;;;;;17.02;59.72;100712.94;5072068;28;20477;-55
2022/05/26 02:16:52;;;;;;;6.53;2.35;;;;;;;16.90;59.51;100723.06;5071787;28;20072;-55
2022/05/26 02:19:37;;;;;;;3.97;2.45;;;;;;;16.77;60.22;100713.44;5071721;28;20036;-53
2022/05/26 02:22:26;;;;;;;6.45;2.35;;;;;;;16.76;60.49;100727.19;5071667;28;20028;-54
2022/05/26 02:25:24;;;;;;;5.60;2.40;;;;;;;16.73;60.33;100727.72;5051213;28;20025;-55
2022/05/26 02:27:56;;;;;;;2.85;2.17;;;;;;;16.49;60.88;100735.16;5028784;28;20040;-55
2022/05/26 02:30:28;;;;;;;6.20;2.60;;;;;;;16.41;61.49;100736.41;5051763;28;20056;-56
2022/05/26 02:32:55;;;;;;;3.92;2.75;;;;;;;16.52;61.23;100730.06;5051642;28;20056;-54
2022/05/26 02:35:28;;;;;;;14.45;3.40;;;;;;;16.67;60.80;100709.75;5051733;28;20116;-55
2022/05/26 02:38:09;;;;;;;4.85;2.60;;;;;;;16.45;61.27;100724.03;5051629;28;20126;-55
2022/05/26 02:40:36;;;;;;;6.07;3.53;;;;;;;16.61;61.00;100725.91;5062168;28;20044;-55
2022/05/26 02:43:07;;;;;;;3.42;2.38;;;;;;;16.58;60.72;100722.88;5071688;28;20020;-55
2022/05/26 02:46:05;;;;;;;4.93;2.80;;;;;;;16.46;61.22;100733.78;5071398;28;20021;-56
2022/05/26 02:48:43;;;;;;;3.67;2.75;;;;;;;16.25;61.87;100732.63;5071098;28;20387;-56
2022/05/26 02:51:32;;;;;;;3.97;3.00;;;;;;;16.21;62.08;100728.81;5051673;28;20100;-55
2022/05/26 02:54:30;;;;;;;3.42;2.65;;;;;;;16.14;62.41;100730.03;5051253;28;20032;-53
2022/05/26 02:57:15;;;;;;;4.95;2.95;;;;;;;15.49;64.75;100726.72;5055558;28;20373;-56
2022/05/26 02:59:57;;;;;;;5.75;3.17;;;;;;;15.34;65.29;100728.31;5071368;28;20024;-55
2022/05/26 03:02:54;;;;;;;5.43;3.25;;;;;;;15.33;65.59;100732.88;5071270;28;20040;-56
2022/05/26 03:05:47;;;;;;;4.50;3.13;;;;;;;15.11;66.15;100740.81;5071224;28;20029;-54
2022/05/26 03:08:17;;;;;;;6.25;3.28;;;;;;;14.89;66.97;100747.88;5063126;28;20120;-55
2022/05/26 03:10:51;;;;;;;4.47;3.47;;;;;;;14.69;67.65;100742.84;5071532;28;20108;-55
2022/05/26 03:13:18;;;;;;;7.70;3.80;;;;;;;14.49;68.55;100754.81;5050333;28;20494;-55
2022/05/26 03:15:45;;;;;;;4.93;3.22;;;;;;;14.46;68.77;100752.53;5069000;28;20031;-54
2022/05/26 03:18:11;;;;;;;5.28;3.22;;;;;;;14.24;69.57;100752.28;5071028;28;20105;-54
2022/05/26 03:20:38;;;;;;;7.47;3.70;;;;;;;14.13;70.10;100753.09;5071481;28;20021;-54
2022/05/26 03:23:05;;;;;;;7.25;3.38;;;;;;;14.10;70.63;100753.56;5068144;28;20025;-56
2022/05/26 03:25:31;;;;;;;5.68;3.55;;;;;;;13.85;71.42;100759.09;5051080;28;20017;-55
2022/05/26 03:27:57;;;;;;;5.03;3.40;;;;;;;13.81;71.41;100766.00;5051335;28;20029;-55
2022/05/26 03:30:23;;;;;;;6.38;3.65;;;;;;;13.90;71.32;100764.63;5051904;28;20051;-55
2022/05/26 03:32:49;;;;;;;6.97;2.90;;;;;;;13.69;71.92;100771.34;5071199;28;20107;-54
2022/05/26 03:41:06;;;;;;;7.40;4.50;;;;;;;13.50;73.15;100785.06;5070256;28;20040;-55
2022/05/26 03:43:47;;;;;;;6.78;3.97;;;;;;;13.43;73.37;100791.31;5070675;28;20028;-54
2022/05/26 03:46:13;;;;;;;5.93;3.42;;;;;;;13.46;73.43;100788.19;5070850;28;20427;-55
2022/05/26 03:48:40;;;;;;;5.47;3.47;;;;;;;13.39;73.32;100792.84;5070770;28;20376;-55
2022/05/26 03:51:07;;;;;;;5.95;3.28;;;;;;;13.42;73.52;100796.94;5071166;28;20025;-55
2022/05/26 03:53:34;;;;;;;6.55;3.53;;;;;;;13.22;73.59;100789.13;5071187;28;20393;-55
2022/05/26 03:56:02;;;;;;;4.55;2.70;;;;;;;13.15;73.40;100801.75;5070504;28;20035;-55
2022/05/26 03:58:28;;;;;;;6.07;3.03;;;;;;;13.12;73.63;100805.72;5070955;28;20078;-54
2022/05/26 04:00:55;;;;;;;6.13;3.05;;;;;;;13.21;73.13;100806.25;5074757;28;20028;-55
2022/05/26 04:03:21;;;;;;;6.63;3.25;;;;;;;13.12;73.51;100811.09;5074457;28;20557;-54
2022/05/26 04:05:47;;;;;;;5.05;3.15;;;;;;;13.07;74.26;100819.00;5073277;28;20063;-55
2022/05/26 04:08:14;;;;;;;6.55;3.20;;;;;;;13.06;74.28;100827.31;5074636;28;20036;-54
2022/05/26 04:10:40;;;;;;;9.70;3.40;;;;;;;13.02;74.41;100826.09;5074865;28;20078;-56
2022/05/26 04:13:06;;;;;;;6.00;3.03;;;;;;;13.03;74.47;100820.50;5074057;28;20032;-54
2022/05/26 04:15:32;;;;;;;5.75;3.38;;;;;;;13.03;74.64;100819.66;5073804;28;20377;-54
2022/05/26 04:17:58;;;;;;;5.60;3.58;;;;;;;13.12;74.13;100818.34;5073801;28;20102;-51
2022/05/26 04:20:25;;;;;;;5.28;3.35;;;;;;;13.07;74.30;100827.06;5074155;28;20473;-53
2022/05/26 04:22:51;;;;;;;5.60;3.72;;;;;;;13.04;74.11;100837.44;5073892;28;20131;-52
2022/05/26 04:25:20;;;;;;;6.43;3.17;;;;;;;12.98;74.21;100832.94;5052959;28;20086;-54
2022/05/26 04:27:46;;;;;;;5.25;3.25;;;;;;;12.99;74.41;100837.28;5053611;28;20036;-53
2022/05/26 04:30:13;;;;;;;4.47;3.15;;;;;;;12.99;74.38;100838.09;5053422;28;20078;-51
2022/05/26 04:32:40;;;;;;;6.90;3.63;;;;;;;13.02;74.18;100842.22;5054254;28;20097;-52
2022/05/26 04:35:09;;;;;;;5.70;2.75;;;;;;;12.94;74.48;100846.84;5053616;28;20491;-53
2022/05/26 04:37:35;;;;;;;4.15;3.05;;;;;;;13.08;73.82;100854.75;5053824;28;20060;-52
2022/05/26 04:40:02;;;;;;;3.80;2.75;;;;;;;12.95;74.57;100864.59;5068342;28;20074;-52
2022/05/26 04:42:31;;;;;;;4.57;2.90;;;;;;;13.03;74.00;100862.66;5057323;28;20039;-53
2022/05/26 04:44:58;;;;;;;5.07;2.65;;;;;;;13.14;73.49;100857.38;5053067;28;20536;-53
2022/05/26 04:47:25;;;;;;;4.40;2.80;;;;;;;12.97;74.00;100864.38;5053181;28;20052;-54
2022/05/26 04:49:52;;;;;;;4.43;2.30;;;;;;;12.91;73.93;100871.44;5053569;28;20495;-52
2022/05/26 04:52:20;;;;;;;3.00;2.10;;;;;;;12.99;72.77;100867.66;5053670;28;20033;-53
2022/05/26 04:54:47;;;;;;;3.85;2.33;;;;;;;13.00;73.07;100868.50;5053324;28;20061;-52
2022/05/26 04:57:15;;;;;;;3.60;2.35;;;;;;;12.90;73.88;100867.13;5057313;28;20033;-54
2022/05/26 04:59:42;;;;;;;6.93;2.65;;;;;;;12.76;74.20;100873.63;5053082;28;20021;-52
2022/05/26 05:02:13;;;;;;;2.83;2.22;;;;;;;12.78;74.06;100870.75;5053209;28;20028;-54
2022/05/26 05:04:42;;;;;;;5.15;2.72;;;;;;;12.73;74.63;100884.84;5052686;28;20021;-53
2022/05/26 05:07:12;;;;;;;2.67;2.22;;;;;;;12.68;74.66;100887.34;5053164;28;20033;-53
2022/05/26 05:09:39;;;;;;;4.82;2.63;;;;;;;12.66;75.07;100886.75;5052880;28;20071;-54
2022/05/26 05:12:07;;;;;;;4.72;2.60;;;;;;;12.67;75.15;100881.16;5053000;28;20033;-53
2022/05/26 05:14:40;;;;;;;4.03;2.10;;;;;;;12.68;74.59;100890.84;5060330;28;20029;-52
2022/05/26 05:17:06;;;;;;;5.13;2.28;;;;;;;12.74;74.65;100891.84;5052671;28;20067;-53
2022/05/26 05:19:33;;;;;;;3.22;2.10;;;;;;;12.67;74.89;100896.47;5051382;28;20049;-54
2022/05/26 05:22:05;;;;;;;3.90;2.22;;;;;;;12.46;75.95;100900.31;5052673;28;20017;-51
2022/05/26 05:24:41;;;;;;;4.10;2.38;;;;;;;12.59;75.28;100915.50;5052554;28;20028;-50
2022/05/26 05:27:31;;;;;;;4.35;2.13;;;;;;;12.73;74.92;100905.50;5052626;28;20029;-51
2022/05/26 05:30:03;;;;;;;3.10;2.30;;;;;;;12.52;75.59;100909.38;5057902;28;20037;-52
2022/05/26 05:32:53;;;;;;;3.30;2.25;;;;;;;12.53;75.80;100911.81;5069848;28;20024;-52
2022/05/26 05:35:33;;;;;;;3.90;1.92;;;;;;;12.52;75.45;100904.00;5052366;28;20024;-51
2022/05/26 05:38:00;;;;;;;2.40;1.90;;;;;;;12.38;75.81;100911.28;5052631;28;20067;-53
2022/05/26 05:40:27;;;;;;;2.75;1.92;;;;;;;12.37;76.52;100906.97;5052534;28;20075;-52
2022/05/26 05:42:53;;;;;;;2.45;1.73;;;;;;;12.41;76.22;100908.19;5052889;28;20036;-52
2022/05/26 05:45:20;;;;;;;1.70;1.60;;;;;;;12.41;76.25;100911.69;5052085;28;20056;-52
2022/05/26 05:47:46;;;;;;;3.15;1.92;;;;;;;12.43;76.11;100906.09;5064172;28;20389;-53
2022/05/26 05:50:12;;;;;;;2.00;1.80;;;;;;;12.52;75.54;100917.41;5054401;28;20025;-53
2022/05/26 05:52:38;;;;;;;2.40;1.70;;;;;;;12.35;75.90;100923.31;5050483;28;20052;-53
2022/05/26 05:55:06;;;;;;;8.13;2.50;;;;;;;12.35;76.48;100925.16;5050850;28;20492;-53
2022/05/26 05:57:32;;;;;;;3.17;2.05;;;;;;;12.35;76.39;100925.16;5052263;28;20422;-52
2022/05/26 05:59:58;;;;;;;4.30;1.92;;;;;;;12.36;76.50;100935.69;5051876;28;20024;-52
2022/05/26 06:02:24;;;;;;;2.47;1.55;;;;;;;12.48;76.19;100930.44;5052159;28;20062;-50
2022/05/26 06:04:50;;;;;;;4.05;1.98;;;;;;;12.47;75.92;100933.34;5050369;28;20043;-52
2022/05/26 06:07:20;;;;;;;2.72;1.52;;;;;;;12.48;75.81;100929.63;5051873;28;20041;-52
2022/05/26 06:09:48;;;;;;;2.95;1.40;;;;;;;12.45;75.90;100919.34;5051195;28;20441;-52
2022/05/26 06:12:16;;;;;;;2.85;1.13;;;;;;;12.45;75.41;100922.03;5052288;28;20036;-53
2022/05/26 06:14:42;;;;;;;3.50;1.27;;;;;;;12.37;75.83;100934.63;5049519;28;20029;-50
2022/05/26 06:17:10;;;;;;;2.22;1.33;;;;;;;12.31;76.08;100927.44;5051747;28;20036;-52
2022/05/26 06:19:38;;;;;;;2.30;1.40;;;;;;;12.43;75.53;100927.56;5051900;28;20052;-52
2022/05/26 06:22:17;;;;;;;2.25;1.08;;;;;;;12.34;76.02;100916.28;5065629;28;20360;-52
2022/05/26 06:24:44;;;;;;;1.67;1.20;;;;;;;12.31;75.92;100907.84;5071446;28;20074;-51
2022/05/26 06:29:59;;;;;;;2.05;1.13;;;;;;;12.33;76.00;100914.66;5071838;28;20034;-52
2022/05/26 06:38:00;;;;;;;2.13;1.08;;;;;;;12.17;76.92;100917.84;5057359;28;20055;-48
2022/05/26 06:40:31;;;;;;;3.05;1.50;;;;;;;12.27;76.27;100918.19;5071910;28;20158;-49
2022/05/26 06:42:57;;;;;;;3.55;1.58;;;;;;;12.12;77.40;100920.34;5062857;28;20025;-50
2022/05/26 06:45:24;;;;;;;2.92;1.48;;;;;;;12.12;77.90;100914.97;5060250;28;20495;-51
2022/05/26 06:47:50;;;;;;;4.10;1.63;;;;;;;12.17;76.95;100928.56;5068528;28;20021;-52
2022/05/26 06:50:16;;;;;;;2.28;1.08;;;;;;;12.18;76.76;100913.28;5066899;28;20024;-51
2022/05/26 06:52:42;;;;;;;4.13;1.00;;;;;;;12.21;76.63;100923.59;5071521;28;20021;-50
2022/05/26 06:55:09;;;;;;;1.73;0.85;;;;;;;12.18;76.47;100915.97;5070802;28;20059;-51
2022/05/26 06:57:36;;;;;;;1.15;0.77;;;;;;;12.03;77.04;100921.59;5071400;28;20075;-50
2022/05/26 07:00:07;;;;;;;1.02;0.77;;;;;;;12.00;77.08;100924.75;5071515;28;20032;-51
2022/05/26 07:02:34;;;;;;;3.03;1.00;;;;;;;12.09;77.33;100918.06;5066876;28;20028;-51
2022/05/26 07:05:01;;;;;;;2.55;1.10;;;;;;;12.05;77.58;100911.50;5071177;28;20039;-49
2022/05/26 07:07:27;;;;;;;5.93;1.10;;;;;;;11.91;77.89;100901.88;5070986;28;20392;-49
2022/05/26 07:09:57;;;;;;;3.05;0.85;;;;;;;12.00;77.66;100898.72;5071441;28;20095;-52
2022/05/26 07:12:24;;;;;;;1.95;0.73;;;;;;;11.85;78.37;100914.25;5070960;28;20465;-53
2022/05/26 07:14:51;;;;;;;1.60;0.70;;;;;;;11.91;78.12;100897.31;5071092;28;20086;-52
2022/05/26 07:17:17;;;;;;;2.53;0.95;;;;;;;12.00;77.62;100904.09;5071096;28;20035;-52
2022/05/26 07:19:44;;;;;;;1.00;0.57;;;;;;;11.99;77.22;100897.06;5071332;28;20044;-52
2022/05/26 07:22:10;;;;;;;1.83;0.63;;;;;;;12.01;77.40;100907.59;5071012;28;20086;-52
2022/05/26 07:24:37;;;;;;;1.60;0.70;;;;;;;12.01;77.31;100899.56;5056021;28;20064;-52
2022/05/26 07:27:03;;;;;;;1.83;0.70;;;;;;;12.03;77.12;100905.50;5051202;28;20453;-52
2022/05/26 07:29:30;;;;;;;5.30;1.05;;;;;;;12.01;76.72;100902.22;5051346;28;20035;-52
2022/05/26 07:31:56;;;;;;;2.58;1.00;;;;;;;12.17;75.78;100895.56;5051440;28;20064;-52
2022/05/26 07:34:23;;;;;;;3.47;0.95;;;;;;;12.16;75.81;100910.84;5052519;28;20025;-49
2022/05/26 07:42:21;;;;;;;2.97;1.00;;;;;;;12.28;74.64;100901.06;5054939;28;20040;-51
2022/05/26 07:44:52;;;;;;;3.08;0.90;;;;;;;12.32;74.49;100902.25;5054483;28;20032;-49
2022/05/26 07:47:18;;;;;;;2.42;0.80;;;;;;;12.30;74.28;100909.69;5054195;28;20110;-48
2022/05/26 07:49:49;;;;;;;2.42;0.95;;;;;;;12.31;74.60;100903.28;5054664;28;20027;-49
2022/05/26 07:52:16;;;;;;;1.55;0.60;;;;;;;12.25;74.85;100898.78;5054531;28;20017;-51
2022/05/26 07:54:43;;;;;;;1.17;0.80;;;;;;;12.22;75.03;100899.25;5054397;28;20025;-49
2022/05/26 07:57:22;;;;;;;1.15;0.50;;;;;;;12.22;75.34;100896.56;5054466;28;20029;-48
2022/05/26 07:59:49;;;;;;;1.13;0.60;;;;;;;12.22;74.73;100896.56;5054629;28;20021;-49
2022/05/26 08:02:15;;;;;;;0.70;0.50;;;;;;;12.20;75.07;100895.94;5054406;28;20098;-49
2022/05/26 08:04:42;;;;;;;1.95;0.80;;;;;;;12.21;74.80;100897.56;5054188;28;20485;-48
2022/05/26 08:07:08;;;;;;;0.82;0.57;;;;;;;12.27;74.48;100907.47;5054062;28;20120;-50
2022/05/26 08:09:37;;;;;;;0.98;0.55;;;;;;;12.48;74.12;100905.47;5054604;28;20031;-48
2022/05/26 08:12:10;;;;;;;0.55;0.50;;;;;;;12.38;74.27;100901.41;5054188;28;20090;-48
2022/05/26 08:14:37;;;;;;;2.20;0.60;;;;;;;12.24;74.72;100905.19;5069280;22;20049;-48
2022/05/26 08:17:03;;;;;;;1.42;0.70;;;;;;;12.14;74.96;100904.84;5074008;28;20464;-49
2022/05/26 08:19:29;;;;;;;2.45;1.00;;;;;;;12.20;74.52;100912.03;5074240;28;20043;-49
2022/05/26 08:21:56;;;;;;;2.47;0.80;;;;;;;12.14;75.00;100899.47;5074100;28;20024;-49
2022/05/26 08:24:24;;;;;;;3.42;1.10;;;;;;;12.16;75.39;100905.47;5060724;28;20480;-49
2022/05/26 08:26:51;;;;;;;3.55;1.13;;;;;;;12.13;75.60;100903.19;5054033;28;20075;-48
2022/05/26 08:29:18;;;;;;;3.42;1.08;;;;;;;12.22;74.67;100907.28;5059549;28;20017;-49
2022/05/26 08:31:45;;;;;;;1.63;1.17;;;;;;;12.12;75.84;100899.69;5074120;28;20025;-49
2022/05/26 08:34:11;;;;;;;2.33;1.15;;;;;;;12.19;75.49;100899.66;5073502;28;20531;-48
2022/05/26 08:36:38;;;;;;;1.75;0.90;;;;;;;12.26;75.07;100891.56;5071642;28;20036;-47
2022/05/26 08:39:05;;;;;;;1.67;0.98;;;;;;;12.25;75.50;100904.16;5053701;28;20025;-50
2022/05/26 08:41:40;;;;;;;2.40;0.90;;;;;;;12.25;75.11;100903.34;5053902;28;20075;-49
2022/05/26 08:44:25;;;;;;;3.83;1.10;;;;;;;12.23;75.24;100900.06;5044515;28;20026;-49
2022/05/26 08:47:01;;;;;;;1.95;1.30;;;;;;;12.23;75.17;100890.16;5033511;28;20030;-52
2022/05/26 08:49:41;;;;;;;2.75;1.23;;;;;;;12.12;76.27;100888.16;5033906;28;20496;-51
2022/05/26 08:52:10;;;;;;;1.92;0.98;;;;;;;12.21;75.10;100894.06;5033669;28;20021;-51
2022/05/26 08:54:59;;;;;;;1.77;1.17;;;;;;;12.23;75.34;100906.25;5033576;28;20034;-51
2022/05/26 08:57:38;;;;;;;2.08;1.45;;;;;;;12.34;74.61;100900.19;5033399;28;20530;-50
2022/05/26 09:00:07;;;;;;;2.40;1.25;;;;;;;12.30;75.54;100896.28;5033569;28;20124;-51
2022/05/26 09:02:35;;;;;;;2.83;1.10;;;;;;;12.23;75.83;100897.38;5033654;28;20525;-51
2022/05/26 09:05:05;;;;;;;2.70;1.50;;;;;;;12.29;75.47;100891.13;5033006;28;20053;-51
2022/05/26 09:13:21;;;;;;;3.90;1.60;;;;;;;12.33;75.47;100901.22;5033665;28;20036;-51
2022/05/26 09:15:47;;;;;;;2.28;1.65;;;;;;;12.24;76.21;100902.50;5033894;28;20077;-50
2022/05/26 09:18:21;;;;;;;3.03;1.60;;;;;;;12.28;76.26;100906.41;5033174;28;20123;-49
2022/05/26 09:20:51;;;;;;;1.95;1.30;;;;;;;12.38;75.48;100906.78;5033385;28;20022;-49
2022/05/26 09:23:29;;;;;;;2.33;1.65;;;;;;;12.35;75.22;100901.84;5032789;28;20108;-51
2022/05/26 09:26:01;;;;;;;1.65;1.08;;;;;;;12.41;74.22;100902.81;5032909;28;20033;-50
2022/05/26 09:28:49;;;;;;;2.95;1.30;;;;;;;12.24;75.23;100902.50;5035898;28;20063;-51
2022/05/26 09:31:34;;;;;;;6.15;1.50;;;;;;;12.29;75.35;100901.88;5052872;28;20038;-52
2022/05/26 09:34:18;;;;;;;3.25;1.52;;;;;;;12.37;74.29;100902.41;5052203;28;20400;-52
2022/05/26 09:36:49;;;;;;;3.25;1.42;;;;;;;12.27;75.10;100898.56;5052583;28;20056;-49
2022/05/26 09:39:24;;;;;;;3.63;1.50;;;;;;;12.35;74.27;100901.00;5052536;28;20108;-51
2022/05/26 09:41:53;;;;;;;2.47;1.40;;;;;;;12.33;74.95;100897.72;5052910;28;20025;-49
2022/05/26 09:44:40;;;;;;;3.05;1.80;;;;;;;12.48;74.46;100903.59;5049388;28;20029;-52
2022/05/26 09:47:34;;;;;;;3.60;2.00;;;;;;;12.57;74.44;100906.84;5035671;28;20036;-50
2022/05/26 09:50:05;;;;;;;3.67;1.50;;;;;;;12.53;74.24;100897.59;5041287;28;20025;-50
2022/05/26 09:52:45;;;;;;;4.53;2.38;;;;;;;12.54;75.22;100891.16;5043232;28;20036;-52
2022/05/26 09:55:21;;;;;;;5.25;1.70;;;;;;;12.49;75.61;100896.38;5032293;28;20478;-52
2022/05/26 09:57:48;;;;;;;2.67;1.60;;;;;;;12.49;75.21;100893.69;5034705;28;20476;-48
2022/05/26 10:00:37;;;;;;;2.85;1.52;;;;;;;12.50;75.83;100896.16;5032488;28;20049;-49
2022/05/26 10:03:22;;;;;;;4.28;1.65;;;;;;;12.74;74.19;100891.84;5032092;28;20064;-53
2022/05/26 10:06:25;;;;;;;4.70;2.10;;;;;;;12.72;74.65;100898.50;5032416;28;20116;-51
2022/05/26 10:09:22;;;;;;;4.25;1.90;;;;;;;12.75;75.03;100889.97;5050585;28;20028;-50
2022/05/26 10:12:12;;;;;;;1.95;1.38;;;;;;;12.72;74.26;100902.00;5032557;28;20582;-52
2022/05/26 10:15:02;;;;;;;3.58;1.60;;;;;;;12.73;74.09;100894.75;5031490;28;20080;-52
2022/05/26 10:17:34;;;;;;;2.03;1.40;;;;;;;12.60;75.28;100887.59;5032036;28;20025;-50
2022/05/26 10:20:17;;;;;;;2.30;1.65;;;;;;;12.70;73.42;100874.53;5032066;28;20029;-50
2022/05/26 10:23:09;;;;;;;1.50;1.40;;;;;;;12.64;74.43;100872.72;5032370;28;20026;-53
2022/05/26 10:25:41;;;;;;;2.25;1.50;;;;;;;12.60;74.48;100874.19;5032197;28;20025;-53
2022/05/26 10:28:47;;;;;;;2.20;1.48;;;;;;;12.56;74.27;100868.44;5031911;28;20021;-51
2022/05/26 10:31:32;;;;;;;2.03;1.50;;;;;;;12.54;74.69;100861.63;5031667;28;20519;-52
2022/05/26 10:34:29;;;;;;;2.40;1.75;;;;;;;12.62;73.29;100861.38;5031582;28;20068;-53
2022/05/26 10:37:02;;;;;;;2.42;1.30;;;;;;;12.57;74.18;100863.91;5051651;28;20083;-51
2022/05/26 10:40:05;;;;;;;1.90;1.20;;;;;;;12.62;73.56;100858.69;5051677;28;20448;-49
2022/05/26 10:42:43;;;;;;;1.63;1.13;;;;;;;12.49;74.27;100856.09;5051635;28;20017;-50
2022/05/26 10:45:16;;;;;;;2.20;1.30;;;;;;;12.42;74.55;100856.97;5049592;28;20032;-50
2022/05/26 10:48:03;;;;;;;3.13;1.70;;;;;;;12.47;74.21;100852.81;5031779;28;20026;-52
2022/05/26 10:50:35;;;;;;;3.20;1.98;;;;;;;12.49;73.24;100866.81;5031971;28;20088;-49
2022/05/26 10:53:23;;;;;;;1.60;1.30;;;;;;;12.39;74.65;100856.59;5043947;28;20052;-51
2022/05/26 10:56:07;;;;;;;3.05;1.50;;;;;;;12.39;74.13;100860.09;5051355;28;20040;-52
2022/05/26 10:58:39;;;;;;;2.25;1.70;;;;;;;12.41;73.57;100860.69;5031786;28;20026;-52
2022/05/26 11:01:16;;;;;;;1.88;1.33;;;;;;;12.39;74.09;100862.78;5030133;28;20437;-52
2022/05/26 11:03:47;;;;;;;2.92;1.55;;;;;;;12.37;74.55;100856.78;5031224;28;20108;-49
2022/05/26 11:06:25;;;;;;;3.92;2.17;;;;;;;12.30;74.37;100868.63;5031532;28;20355;-51
2022/05/26 11:09:19;;;;;;;3.08;2.17;;;;;;;12.32;73.95;100872.72;5036664;28;20033;-50
2022/05/26 11:11:48;;;;;;;3.15;1.90;;;;;;;12.23;75.08;100874.03;5055387;28;20032;-50
2022/05/26 11:17:58;;;;;;;2.42;1.80;;;;;;;12.41;74.33;100876.81;5035475;28;20040;-52
2022/05/26 11:20:35;;;;;;;;;;;;;;;12.38;74.84;100882.63;5036084;28;20025;-52
2022/05/26 11:23:06;;;;;;;3.22;1.60;;;;;;;12.29;75.34;100877.72;5034913;28;19942;-51
2022/05/26 11:25:44;;;;;;;3.35;1.95;;;;;;;12.39;74.75;100881.56;5035696;28;20155;-52
2022/05/26 11:28:20;;;;;;;4.57;2.28;;;;;;;12.39;74.73;100884.25;5034987;28;20037;-52
2022/05/26 11:36:56;;;;;;;2.28;1.65;;;;;;;12.21;76.04;100899.44;5055124;28;20055;-52
2022/05/26 11:39:28;;;;;;;4.28;1.75;;;;;;;12.31;75.08;100892.56;5055066;28;20060;-52
2022/05/26 11:42:04;;;;;;;3.08;1.63;;;;;;;12.40;74.29;100891.28;5054745;28;20461;-51
2022/05/26 11:44:36;;;;;;;3.35;1.58;;;;;;;12.58;74.62;100898.56;5059778;22;20087;-52
2022/05/26 11:47:53;;;;;;;2.83;1.50;;;;;;;12.53;74.64;100894.91;5054877;28;20396;-52
2022/05/26 11:50:26;;;;;;;2.88;1.55;;;;;;;12.44;75.19;100891.66;5026598;28;20042;-54
2022/05/26 11:52:52;;;;;;;5.22;2.03;;;;;;;12.57;74.63;100894.25;5050280;28;20055;-52
2022/05/26 11:55:52;;;;;;;2.85;1.65;;;;;;;12.61;74.02;100898.16;5052581;28;20485;-52
2022/05/26 11:58:35;;;;;;;2.67;1.30;;;;;;;12.60;73.89;100896.50;5035961;28;20099;-54
2022/05/26 12:01:23;;;;;;;3.60;1.50;;;;;;;12.75;73.09;100898.84;5048277;28;20147;-52
2022/05/26 12:04:00;;;;;;;2.80;1.60;;;;;;;12.60;73.98;100906.41;5054472;28;20123;-54
2022/05/26 12:06:37;;;;;;;4.57;1.85;;;;;;;12.43;74.73;100906.94;5054212;28;20478;-51
2022/05/26 12:09:08;;;;;;;3.10;1.90;;;;;;;12.49;75.05;100907.09;5054275;28;20428;-51
2022/05/26 12:12:05;;;;;;;1.88;1.70;;;;;;;12.58;74.45;100901.25;5047943;28;20018;-54
2022/05/26 12:14:55;;;;;;;2.33;1.40;;;;;;;12.40;74.77;100914.59;5044733;28;20178;-54
2022/05/26 12:17:40;;;;;;;4.00;1.58;;;;;;;12.42;74.48;100905.28;5038353;28;20041;-53
2022/05/26 12:20:12;;;;;;;3.33;1.75;;;;;;;12.58;73.77;100897.75;5053561;28;20583;-53
2022/05/26 12:22:47;;;;;;;5.95;1.50;;;;;;;12.57;74.17;100894.25;5054590;28;20063;-53
2022/05/26 12:25:28;;;;;;;2.22;1.65;;;;;;;12.60;74.08;100899.19;5054139;28;20512;-52
2022/05/26 12:28:29;;;;;;;3.10;1.73;;;;;;;12.59;74.38;100902.06;5054494;28;20033;-53
2022/05/26 12:30:55;;;;;;;2.75;1.02;;;;;;;12.54;73.73;100896.53;5054440;28;20063;-54